createdAt,value
2022-07-29T00:00:00.368Z,0.045
2022-07-29T00:01:00.370Z,0.045
2022-07-29T00:02:00.420Z,0.045
2022-07-29T00:03:00.470Z,0.045
2022-07-29T00:04:00.389Z,0.045
2022-07-29T00:05:00.321Z,0.045
2022-07-29T00:06:00.894Z,0.045
2022-07-29T00:07:00.403Z,0.045
2022-07-29T00:08:00.401Z,0.045
2022-07-29T00:09:00.358Z,0.045
2022-07-29T00:10:00.342Z,0.045
2022-07-29T00:11:00.310Z,0.045
2022-07-29T00:12:00.408Z,0.045
2022-07-29T00:13:00.304Z,0.045
2022-07-29T00:14:00.303Z,0.045
2022-07-29T00:15:00.390Z,0.045
2022-07-29T00:16:04.887Z,0.045
2022-07-29T00:17:00.340Z,0.045
2022-07-29T00:18:00.461Z,0.045
2022-07-29T00:19:02.243Z,0.045
2022-07-29T00:20:00.355Z,0.045
2022-07-29T00:21:00.372Z,0.045
2022-07-29T00:22:00.291Z,0.045
2022-07-29T00:23:00.468Z,0.045
2022-07-29T00:24:00.286Z,0.090
2022-07-29T00:25:00.528Z,0.045
2022-07-29T00:26:00.288Z,0.045
2022-07-29T00:27:00.279Z,0.045
2022-07-29T00:28:00.376Z,0.045
2022-07-29T00:29:31.904Z,0.045
2022-07-29T00:30:00.293Z,0.045
2022-07-29T00:31:00.538Z,0.045
2022-07-29T00:32:00.427Z,0.045
2022-07-29T00:33:00.315Z,0.045
2022-07-29T00:34:00.297Z,0.045
2022-07-29T00:35:00.314Z,0.045
2022-07-29T00:36:00.397Z,0.045
2022-07-29T00:37:00.292Z,0.045
2022-07-29T00:38:00.395Z,0.045
2022-07-29T00:39:00.323Z,0.045
2022-07-29T00:40:00.449Z,0.045
2022-07-29T00:41:00.368Z,0.045
2022-07-29T00:42:00.470Z,0.045
2022-07-29T00:43:00.413Z,0.045
2022-07-29T00:44:00.357Z,0.045
2022-07-29T00:45:00.278Z,0.045
2022-07-29T00:46:00.380Z,0.045
2022-07-29T00:47:00.449Z,0.045
2022-07-29T00:48:00.330Z,0.045
2022-07-29T00:49:00.420Z,0.045
2022-07-29T00:50:00.281Z,0.045
2022-07-29T00:51:00.383Z,0.045
2022-07-29T00:52:00.396Z,0.045
2022-07-29T00:53:00.314Z,0.045
2022-07-29T00:54:00.306Z,0.045
2022-07-29T00:55:04.959Z,0.045
2022-07-29T00:56:00.390Z,0.045
2022-07-29T00:57:00.493Z,0.045
2022-07-29T00:58:00.336Z,0.045
2022-07-29T00:59:00.387Z,0.045
2022-07-29T01:00:00.419Z,0.045
2022-07-29T01:01:00.442Z,0.045
2022-07-29T01:02:00.493Z,0.045
2022-07-29T01:03:00.363Z,0.045
2022-07-29T01:04:00.385Z,0.045
2022-07-29T01:05:00.334Z,0.045
2022-07-29T01:06:00.312Z,0.045
2022-07-29T01:07:00.392Z,0.045
2022-07-29T01:08:00.403Z,0.045
2022-07-29T01:09:00.392Z,0.045
2022-07-29T01:10:00.406Z,0.090
2022-07-29T01:11:00.324Z,0.090
2022-07-29T01:12:00.285Z,0.090
2022-07-29T01:13:00.293Z,0.090
2022-07-29T01:14:00.295Z,0.090
2022-07-29T01:15:00.425Z,0.090
2022-07-29T01:16:00.372Z,0.135
2022-07-29T01:17:00.347Z,0.135
2022-07-29T01:18:00.353Z,0.180
2022-07-29T01:19:00.424Z,0.180
2022-07-29T01:20:00.304Z,0.180
2022-07-29T01:21:00.383Z,0.180
2022-07-29T01:22:00.360Z,0.225
2022-07-29T01:23:00.503Z,0.270
2022-07-29T01:24:00.309Z,0.270
2022-07-29T01:25:00.566Z,0.360
2022-07-29T01:26:00.306Z,0.450
2022-07-29T01:27:00.297Z,0.495
2022-07-29T01:28:00.347Z,0.585
2022-07-29T01:29:00.313Z,0.720
2022-07-29T01:30:00.392Z,0.855
2022-07-29T01:31:00.381Z,1.080
2022-07-29T01:32:01.162Z,1.305
2022-07-29T01:33:00.307Z,1.485
2022-07-29T01:34:00.301Z,1.845
2022-07-29T01:35:00.311Z,2.250
2022-07-29T01:36:00.363Z,2.745
2022-07-29T01:37:00.366Z,3.375
2022-07-29T01:38:00.384Z,3.960
2022-07-29T01:39:00.294Z,4.815
2022-07-29T01:40:00.409Z,5.850
2022-07-29T01:41:00.369Z,7.020
2022-07-29T01:42:00.302Z,8.325
2022-07-29T01:43:00.332Z,9.855
2022-07-29T01:44:00.330Z,11.520
2022-07-29T01:45:00.379Z,13.500
2022-07-29T01:46:00.337Z,15.660
2022-07-29T01:47:00.409Z,18.180
2022-07-29T01:48:00.336Z,20.970
2022-07-29T01:49:00.415Z,23.940
2022-07-29T01:50:00.430Z,27.180
2022-07-29T01:51:00.314Z,30.960
2022-07-29T01:52:00.307Z,34.740
2022-07-29T01:53:00.377Z,38.880
2022-07-29T01:54:00.285Z,43.200
2022-07-29T01:55:00.281Z,47.880
2022-07-29T01:56:00.620Z,52.920
2022-07-29T01:57:00.327Z,57.960
2022-07-29T01:58:00.337Z,63.360
2022-07-29T01:59:00.328Z,69.480
2022-07-29T02:00:00.395Z,75.600
2022-07-29T02:01:00.328Z,82.440
2022-07-29T02:02:00.521Z,89.280
2022-07-29T02:03:00.328Z,97.200
2022-07-29T02:04:00.301Z,105.840
2022-07-29T02:05:00.466Z,114.480
2022-07-29T02:06:00.372Z,123.120
2022-07-29T02:07:00.319Z,132.480
2022-07-29T02:08:00.311Z,141.840
2022-07-29T02:09:00.310Z,151.920
2022-07-29T02:10:00.294Z,162.720
2022-07-29T02:11:00.387Z,174.960
2022-07-29T02:12:00.313Z,187.200
2022-07-29T02:13:00.308Z,198.720
2022-07-29T02:14:00.388Z,211.680
2022-07-29T02:15:00.280Z,224.640
2022-07-29T02:16:00.422Z,239.040
2022-07-29T02:17:00.394Z,254.880
2022-07-29T02:18:00.285Z,272.160
2022-07-29T02:19:00.336Z,290.880
2022-07-29T02:20:00.335Z,311.040
2022-07-29T02:21:00.334Z,334.080
2022-07-29T02:22:00.279Z,358.560
2022-07-29T02:23:00.378Z,383.040
2022-07-29T02:24:00.301Z,411.840
2022-07-29T02:25:00.879Z,449.280
2022-07-29T02:26:00.294Z,714.240
2022-07-29T02:27:00.290Z,1140.480
2022-07-29T02:28:00.456Z,1324.800
2022-07-29T02:29:00.424Z,1451.520
2022-07-29T02:30:00.292Z,1543.680
2022-07-29T02:31:00.372Z,1578.240
2022-07-29T02:32:00.309Z,1497.600
2022-07-29T02:33:00.311Z,1647.360
2022-07-29T02:34:00.406Z,2142.720
2022-07-29T02:35:00.301Z,2269.440
2022-07-29T02:36:00.338Z,2304.000
2022-07-29T02:37:00.294Z,1877.760
2022-07-29T02:38:00.399Z,1261.440
2022-07-29T02:39:00.332Z,840.960
2022-07-29T02:40:00.288Z,846.720
2022-07-29T02:41:00.329Z,864.000
2022-07-29T02:42:00.312Z,881.280
2022-07-29T02:43:00.380Z,898.560
2022-07-29T02:44:00.462Z,910.080
2022-07-29T02:45:00.307Z,927.360
2022-07-29T02:46:00.436Z,944.640
2022-07-29T02:47:00.389Z,956.160
2022-07-29T02:48:00.309Z,973.440
2022-07-29T02:49:00.557Z,990.720
2022-07-29T02:50:00.619Z,1008.000
2022-07-29T02:51:00.289Z,1025.280
2022-07-29T02:52:00.297Z,1042.560
2022-07-29T02:53:00.370Z,1059.840
2022-07-29T02:54:00.310Z,1077.120
2022-07-29T02:55:00.370Z,1100.160
2022-07-29T02:56:00.343Z,1123.200
2022-07-29T02:57:00.292Z,1140.480
2022-07-29T02:58:00.523Z,1163.520
2022-07-29T02:59:00.295Z,1192.320
2022-07-29T03:00:00.281Z,1221.120
2022-07-29T03:01:00.294Z,1249.920
2022-07-29T03:02:00.363Z,1278.720
2022-07-29T03:03:00.297Z,1301.760
2022-07-29T03:04:00.388Z,1330.560
2022-07-29T03:05:00.374Z,1353.600
2022-07-29T03:06:00.303Z,1370.880
2022-07-29T03:07:00.290Z,1399.680
2022-07-29T03:08:00.299Z,1422.720
2022-07-29T03:09:00.288Z,1445.760
2022-07-29T03:10:00.409Z,1468.800
2022-07-29T03:11:00.288Z,1486.080
2022-07-29T03:12:00.299Z,1509.120
2022-07-29T03:13:00.310Z,1543.680
2022-07-29T03:14:00.364Z,1566.720
2022-07-29T03:15:00.301Z,1601.280
2022-07-29T03:16:00.387Z,1635.840
2022-07-29T03:17:00.288Z,1658.880
2022-07-29T03:18:00.361Z,1704.960
2022-07-29T03:19:00.361Z,1739.520
2022-07-29T03:20:00.364Z,1785.600
2022-07-29T03:21:00.447Z,1831.680
2022-07-29T03:22:00.350Z,1877.760
2022-07-29T03:23:00.283Z,1923.840
2022-07-29T03:24:00.294Z,1958.400
2022-07-29T03:25:00.398Z,1992.960
2022-07-29T03:26:00.402Z,2004.480
2022-07-29T03:27:00.302Z,2027.520
2022-07-29T03:28:00.423Z,2050.560
2022-07-29T03:29:00.274Z,2039.040
2022-07-29T03:30:00.569Z,2039.040
2022-07-29T03:31:00.325Z,2027.520
2022-07-29T03:32:00.274Z,2016.000
2022-07-29T03:33:00.296Z,2004.480
2022-07-29T03:34:00.327Z,1981.440
2022-07-29T03:35:00.350Z,1958.400
2022-07-29T03:36:00.373Z,1935.360
2022-07-29T03:37:00.381Z,1866.240
2022-07-29T03:38:00.291Z,1843.200
2022-07-29T03:39:00.320Z,1739.520
2022-07-29T03:40:00.304Z,1566.720
2022-07-29T03:41:00.308Z,1543.680
2022-07-29T03:42:00.328Z,1589.760
2022-07-29T03:43:00.433Z,1532.160
2022-07-29T03:44:00.303Z,1635.840
2022-07-29T03:45:00.304Z,1820.160
2022-07-29T03:46:00.363Z,1624.320
2022-07-29T03:47:00.413Z,1658.880
2022-07-29T03:48:01.162Z,1543.680
2022-07-29T03:49:00.490Z,1578.240
2022-07-29T03:50:00.353Z,1624.320
2022-07-29T03:51:00.357Z,1808.640
2022-07-29T03:52:00.334Z,1958.400
2022-07-29T03:53:00.308Z,2292.480
2022-07-29T03:54:00.287Z,2396.160
2022-07-29T03:55:00.301Z,2419.200
2022-07-29T03:56:00.389Z,2499.840
2022-07-29T03:57:00.378Z,2499.840
2022-07-29T03:58:00.437Z,2522.880
2022-07-29T03:59:00.383Z,2580.480
2022-07-29T04:00:00.351Z,2603.520
2022-07-29T04:01:00.337Z,2615.040
2022-07-29T04:02:00.518Z,2626.560
2022-07-29T04:03:00.370Z,2638.080
2022-07-29T04:04:00.439Z,2649.600
2022-07-29T04:05:00.370Z,2649.600
2022-07-29T04:06:00.330Z,2661.120
2022-07-29T04:07:00.316Z,2672.640
2022-07-29T04:08:00.384Z,2661.120
2022-07-29T04:09:00.284Z,2672.640
2022-07-29T04:10:00.300Z,2672.640
2022-07-29T04:11:00.301Z,2672.640
2022-07-29T04:12:03.224Z,2672.640
2022-07-29T04:13:00.351Z,2672.640
2022-07-29T04:14:00.386Z,2568.960
2022-07-29T04:15:00.375Z,2568.960
2022-07-29T04:16:00.326Z,2592.000
2022-07-29T04:17:00.292Z,2615.040
2022-07-29T04:18:00.413Z,2626.560
2022-07-29T04:19:00.274Z,2327.040
2022-07-29T04:20:00.394Z,2096.640
2022-07-29T04:21:00.307Z,2661.120
2022-07-29T04:22:00.290Z,2568.960
2022-07-29T04:23:00.292Z,2488.320
2022-07-29T04:24:00.292Z,2304.000
2022-07-29T04:25:03.745Z,2695.680
2022-07-29T04:26:00.385Z,2833.920
2022-07-29T04:27:00.311Z,2810.880
2022-07-29T04:28:00.385Z,2799.360
2022-07-29T04:29:00.274Z,2810.880
2022-07-29T04:30:00.305Z,2833.920
2022-07-29T04:31:00.359Z,2868.480
2022-07-29T04:32:00.570Z,2891.520
2022-07-29T04:33:00.293Z,2891.520
2022-07-29T04:34:00.310Z,2810.880
2022-07-29T04:35:00.387Z,3018.240
2022-07-29T04:36:00.281Z,3110.400
2022-07-29T04:37:00.307Z,3179.520
2022-07-29T04:38:00.383Z,3202.560
2022-07-29T04:39:00.346Z,3225.600
2022-07-29T04:40:00.342Z,3225.600
2022-07-29T04:41:00.376Z,3156.480
2022-07-29T04:42:00.327Z,3202.560
2022-07-29T04:43:00.292Z,3248.640
2022-07-29T04:44:00.440Z,3294.720
2022-07-29T04:45:01.266Z,3294.720
2022-07-29T04:46:00.447Z,5667.840
2022-07-29T04:47:00.326Z,12533.760
2022-07-29T04:48:00.388Z,15390.720
2022-07-29T04:49:00.534Z,15482.880
2022-07-29T04:50:00.454Z,15851.520
2022-07-29T04:51:00.315Z,16312.320
2022-07-29T04:52:00.478Z,16312.320
2022-07-29T04:53:00.360Z,16312.320
2022-07-29T04:54:00.297Z,16496.641
2022-07-29T04:55:00.325Z,16588.801
2022-07-29T04:56:00.294Z,16588.801
2022-07-29T04:57:00.289Z,16773.119
2022-07-29T04:58:00.386Z,16865.279
2022-07-29T04:59:00.283Z,16957.439
2022-07-29T05:00:00.336Z,16957.439
2022-07-29T05:01:00.299Z,17049.600
2022-07-29T05:02:00.372Z,17049.600
2022-07-29T05:03:00.440Z,17141.760
2022-07-29T05:04:00.889Z,17141.760
2022-07-29T05:05:00.316Z,17141.760
2022-07-29T05:06:00.375Z,16957.439
2022-07-29T05:07:00.328Z,17141.760
2022-07-29T05:08:00.294Z,17233.920
2022-07-29T05:09:00.297Z,17233.920
2022-07-29T05:10:00.415Z,17141.760
2022-07-29T05:11:11.733Z,17233.920
2022-07-29T05:12:00.317Z,17141.760
2022-07-29T05:13:00.406Z,17233.920
2022-07-29T05:14:00.314Z,17418.240
2022-07-29T05:15:00.297Z,17510.400
2022-07-29T05:16:00.384Z,17510.400
2022-07-29T05:17:00.286Z,17418.240
2022-07-29T05:18:00.308Z,17602.561
2022-07-29T05:19:00.398Z,17602.561
2022-07-29T05:20:00.325Z,17602.561
2022-07-29T05:21:00.424Z,17602.561
2022-07-29T05:22:00.306Z,17694.721
2022-07-29T05:23:00.302Z,17694.721
2022-07-29T05:24:00.302Z,17694.721
2022-07-29T05:25:03.301Z,17602.561
2022-07-29T05:26:00.360Z,17694.721
2022-07-29T05:27:00.380Z,17786.881
2022-07-29T05:28:00.326Z,17694.721
2022-07-29T05:29:00.323Z,17694.721
2022-07-29T05:30:00.433Z,17694.721
2022-07-29T05:31:00.350Z,17602.561
2022-07-29T05:32:00.479Z,17510.400
2022-07-29T05:33:00.465Z,17602.561
2022-07-29T05:34:00.346Z,17602.561
2022-07-29T05:35:00.322Z,17510.400
2022-07-29T05:36:01.139Z,17510.400
2022-07-29T05:37:00.333Z,17418.240
2022-07-29T05:38:00.324Z,17510.400
2022-07-29T05:39:00.461Z,17510.400
2022-07-29T05:40:00.623Z,17510.400
2022-07-29T05:41:00.532Z,17510.400
2022-07-29T05:42:00.307Z,17510.400
2022-07-29T05:43:00.310Z,17510.400
2022-07-29T05:44:00.296Z,17418.240
2022-07-29T05:45:00.294Z,17418.240
2022-07-29T05:46:00.575Z,17418.240
2022-07-29T05:47:00.311Z,17326.080
2022-07-29T05:48:00.293Z,17418.240
2022-07-29T05:49:00.318Z,17418.240
2022-07-29T05:50:00.317Z,17510.400
2022-07-29T05:51:00.300Z,17418.240
2022-07-29T05:52:00.421Z,17326.080
2022-07-29T05:53:00.296Z,17326.080
2022-07-29T05:54:00.294Z,17326.080
2022-07-29T05:55:00.374Z,17233.920
2022-07-29T05:56:00.287Z,17141.760
2022-07-29T05:57:00.372Z,17141.760
2022-07-29T05:58:00.309Z,17141.760
2022-07-29T05:59:00.319Z,17049.600
2022-07-29T06:00:00.386Z,16957.439
2022-07-29T06:01:00.561Z,16865.279
2022-07-29T06:02:00.393Z,16220.160
2022-07-29T06:03:00.365Z,16312.320
2022-07-29T06:04:00.385Z,16588.801
2022-07-29T06:05:00.402Z,16496.641
2022-07-29T06:06:00.390Z,16496.641
2022-07-29T06:07:00.371Z,16404.480
2022-07-29T06:08:00.458Z,16496.641
2022-07-29T06:09:00.364Z,16312.320
2022-07-29T06:10:00.329Z,16220.160
2022-07-29T06:11:00.344Z,16128.000
2022-07-29T06:12:00.474Z,16035.840
2022-07-29T06:13:00.399Z,16035.840
2022-07-29T06:14:00.315Z,15943.680
2022-07-29T06:15:00.379Z,15943.680
2022-07-29T06:16:00.413Z,15851.520
2022-07-29T06:17:00.412Z,15759.360
2022-07-29T06:18:01.671Z,15667.200
2022-07-29T06:19:00.310Z,15667.200
2022-07-29T06:20:00.302Z,15667.200
2022-07-29T06:21:00.340Z,15482.880
2022-07-29T06:22:00.376Z,15482.880
2022-07-29T06:23:00.398Z,15390.720
2022-07-29T06:24:00.310Z,15298.560
2022-07-29T06:25:00.324Z,15206.400
2022-07-29T06:26:00.307Z,15022.080
2022-07-29T06:27:00.387Z,14837.760
2022-07-29T06:28:00.296Z,14837.760
2022-07-29T06:29:00.282Z,14837.760
2022-07-29T06:30:00.303Z,14745.600
2022-07-29T06:31:00.444Z,14745.600
2022-07-29T06:32:00.331Z,14653.440
2022-07-29T06:33:00.800Z,14561.280
2022-07-29T06:34:00.330Z,14561.280
2022-07-29T06:35:33.054Z,14376.960
2022-07-29T06:36:00.294Z,14284.800
2022-07-29T06:37:00.284Z,14192.640
2022-07-29T06:38:00.386Z,14192.640
2022-07-29T06:39:00.414Z,14008.320
2022-07-29T06:40:00.312Z,14008.320
2022-07-29T06:41:00.298Z,13916.160
2022-07-29T06:42:00.346Z,13824.000
2022-07-29T06:43:00.290Z,13731.840
2022-07-29T06:44:00.300Z,13639.680
2022-07-29T06:45:00.401Z,13639.680
2022-07-29T06:46:00.456Z,13639.680
2022-07-29T06:47:00.352Z,13547.520
2022-07-29T06:48:00.367Z,13363.200
2022-07-29T06:49:00.429Z,13271.040
2022-07-29T06:50:00.382Z,13271.040
2022-07-29T06:51:00.381Z,13178.880
2022-07-29T06:52:00.326Z,13086.720
2022-07-29T06:53:00.443Z,12902.400
2022-07-29T06:54:02.958Z,12718.080
2022-07-29T06:55:00.322Z,12625.920
2022-07-29T06:56:00.303Z,12533.760
2022-07-29T06:57:00.413Z,12257.280
2022-07-29T06:58:00.300Z,12165.120
2022-07-29T06:59:00.295Z,12072.960
2022-07-29T07:00:00.314Z,11888.640
2022-07-29T07:01:00.321Z,11750.400
2022-07-29T07:02:00.701Z,11566.080
2022-07-29T07:03:00.738Z,11427.840
2022-07-29T07:04:00.541Z,11243.520
2022-07-29T07:05:00.712Z,11013.120
2022-07-29T07:06:00.713Z,10874.880
2022-07-29T07:07:00.433Z,10690.560
2022-07-29T07:08:00.401Z,10552.320
2022-07-29T07:09:00.374Z,10368.000
2022-07-29T07:10:00.368Z,10183.680
2022-07-29T07:11:00.498Z,9953.280
2022-07-29T07:12:00.504Z,9768.960
2022-07-29T07:13:00.338Z,9584.640
2022-07-29T07:14:03.516Z,9400.320
2022-07-29T07:15:00.676Z,9216.000
2022-07-29T07:16:00.284Z,8985.600
2022-07-29T07:17:00.384Z,8755.200
2022-07-29T07:18:00.327Z,8663.040
2022-07-29T07:19:00.301Z,8340.480
2022-07-29T07:20:00.351Z,8110.080
2022-07-29T07:21:00.820Z,7925.760
2022-07-29T07:22:00.316Z,7695.360
2022-07-29T07:23:00.329Z,7511.040
2022-07-29T07:24:00.572Z,7280.640
2022-07-29T07:25:00.380Z,7050.240
2022-07-29T07:26:00.489Z,6865.920
2022-07-29T07:27:00.469Z,6681.600
2022-07-29T07:28:00.421Z,6451.200
2022-07-29T07:29:00.381Z,6266.880
2022-07-29T07:30:00.516Z,6082.560
2022-07-29T07:31:00.522Z,5898.240
2022-07-29T07:32:01.170Z,5736.960
2022-07-29T07:33:00.331Z,5552.640
2022-07-29T07:34:00.310Z,5391.360
2022-07-29T07:35:00.401Z,5253.120
2022-07-29T07:36:00.748Z,5045.760
2022-07-29T07:37:00.323Z,4884.480
2022-07-29T07:38:00.356Z,4746.240
2022-07-29T07:39:00.291Z,4584.960
2022-07-29T07:40:00.471Z,4469.760
2022-07-29T07:41:00.283Z,4331.520
2022-07-29T07:42:00.392Z,4239.360
2022-07-29T07:43:00.311Z,4147.200
2022-07-29T07:44:00.333Z,4101.120
2022-07-29T07:45:13.163Z,4055.040
2022-07-29T07:46:00.488Z,4032.000
2022-07-29T07:47:03.864Z,4055.040
2022-07-29T07:48:00.460Z,4032.000
2022-07-29T07:49:00.685Z,4032.000
2022-07-29T07:50:00.671Z,4032.000
2022-07-29T07:51:00.436Z,4055.040
2022-07-29T07:52:00.374Z,4032.000
2022-07-29T07:53:00.308Z,4055.040
2022-07-29T07:54:00.306Z,4008.960
2022-07-29T07:55:00.370Z,4101.120
2022-07-29T07:56:10.443Z,4101.120
2022-07-29T07:57:00.401Z,4078.080
2022-07-29T07:58:00.476Z,4078.080
2022-07-29T07:59:00.501Z,4055.040
2022-07-29T08:00:00.339Z,4101.120
2022-07-29T08:01:00.578Z,4055.040
2022-07-29T08:02:00.377Z,4032.000
2022-07-29T08:03:00.319Z,4032.000
2022-07-29T08:04:00.298Z,4032.000
2022-07-29T08:05:00.382Z,4032.000
2022-07-29T08:06:00.343Z,3893.760
2022-07-29T08:07:00.470Z,3893.760
2022-07-29T08:08:00.327Z,3939.840
2022-07-29T08:09:26.719Z,3939.840
2022-07-29T08:10:00.396Z,3939.840
2022-07-29T08:11:03.271Z,3939.840
2022-07-29T08:12:00.411Z,3916.800
2022-07-29T08:13:00.535Z,3916.800
2022-07-29T08:14:00.424Z,3916.800
2022-07-29T08:15:00.545Z,3893.760
2022-07-29T08:16:00.771Z,3893.760
2022-07-29T08:17:00.414Z,3893.760
2022-07-29T08:18:03.119Z,3847.680
2022-07-29T08:19:00.413Z,3801.600
2022-07-29T08:20:00.512Z,3801.600
2022-07-29T08:21:00.306Z,3778.560
2022-07-29T08:22:00.747Z,3755.520
2022-07-29T08:23:00.583Z,3755.520
2022-07-29T08:24:04.090Z,3755.520
2022-07-29T08:25:00.561Z,3755.520
2022-07-29T08:26:00.382Z,3778.560
2022-07-29T08:27:00.616Z,3778.560
2022-07-29T08:28:00.615Z,3778.560
2022-07-29T08:29:00.435Z,3778.560
2022-07-29T08:30:00.418Z,3778.560
2022-07-29T08:31:00.382Z,3778.560
2022-07-29T08:32:00.349Z,3824.640
2022-07-29T08:33:00.594Z,3801.600
2022-07-29T08:34:00.762Z,3778.560
2022-07-29T08:35:00.306Z,3755.520
2022-07-29T08:36:00.307Z,3755.520
2022-07-29T08:37:00.289Z,3755.520
2022-07-29T08:38:00.294Z,3755.520
2022-07-29T08:39:00.394Z,3755.520
2022-07-29T08:40:00.278Z,3755.520
2022-07-29T08:41:00.353Z,3755.520
2022-07-29T08:42:00.546Z,3778.560
2022-07-29T08:43:00.292Z,3755.520
2022-07-29T08:44:00.352Z,3755.520
2022-07-29T08:45:00.402Z,3801.600
2022-07-29T08:46:00.324Z,3755.520
2022-07-29T08:47:00.294Z,3801.600
2022-07-29T08:48:00.315Z,3755.520
2022-07-29T08:49:00.641Z,3755.520
2022-07-29T08:50:00.322Z,3778.560
2022-07-29T08:51:00.315Z,3778.560
2022-07-29T08:52:00.414Z,3778.560
2022-07-29T08:53:00.456Z,3778.560
2022-07-29T08:54:00.323Z,3778.560
2022-07-29T08:55:00.425Z,3778.560
2022-07-29T08:56:00.290Z,3778.560
2022-07-29T08:57:00.302Z,3801.600
2022-07-29T08:58:00.313Z,3801.600
2022-07-29T08:59:00.271Z,3801.600
2022-07-29T09:00:04.831Z,3801.600
2022-07-29T09:01:00.527Z,3801.600
2022-07-29T09:02:00.527Z,3801.600
2022-07-29T09:03:00.304Z,3801.600
2022-07-29T09:04:00.348Z,3801.600
2022-07-29T09:05:00.311Z,3801.600
2022-07-29T09:06:00.505Z,3801.600
2022-07-29T09:07:00.519Z,3824.640
2022-07-29T09:08:00.291Z,3824.640
2022-07-29T09:09:00.359Z,3847.680
2022-07-29T09:10:00.478Z,3801.600
2022-07-29T09:11:00.281Z,3801.600
2022-07-29T09:12:00.291Z,3824.640
2022-07-29T09:13:00.386Z,3824.640
2022-07-29T09:14:00.290Z,3824.640
2022-07-29T09:15:00.388Z,3824.640
2022-07-29T09:16:02.530Z,3824.640
2022-07-29T09:17:00.842Z,3824.640
2022-07-29T09:18:00.301Z,3824.640
2022-07-29T09:19:00.418Z,3847.680
2022-07-29T09:20:00.292Z,3824.640
2022-07-29T09:21:00.289Z,3824.640
2022-07-29T09:22:00.467Z,3870.720
2022-07-29T09:23:00.314Z,3778.560
2022-07-29T09:24:00.307Z,3778.560
2022-07-29T09:25:00.633Z,3778.560
2022-07-29T09:26:00.295Z,3778.560
2022-07-29T09:27:00.309Z,3778.560
2022-07-29T09:28:00.413Z,3778.560
2022-07-29T09:29:00.339Z,3824.640
2022-07-29T09:30:00.414Z,3778.560
2022-07-29T09:31:00.390Z,3801.600
2022-07-29T09:32:00.387Z,3778.560
2022-07-29T09:33:00.294Z,3778.560
2022-07-29T09:34:00.297Z,3778.560
2022-07-29T09:35:00.326Z,3778.560
2022-07-29T09:36:00.583Z,3778.560
2022-07-29T09:37:00.603Z,3778.560
2022-07-29T09:38:00.313Z,3755.520
2022-07-29T09:39:00.272Z,3755.520
2022-07-29T09:40:00.417Z,3755.520
2022-07-29T09:41:05.966Z,3755.520
2022-07-29T09:42:00.290Z,3778.560
2022-07-29T09:43:00.471Z,3801.600
2022-07-29T09:44:00.580Z,3778.560
2022-07-29T09:45:00.630Z,3755.520
2022-07-29T09:46:00.655Z,3755.520
2022-07-29T09:47:00.430Z,3778.560
2022-07-29T09:48:00.698Z,3778.560
2022-07-29T09:49:00.814Z,3778.560
2022-07-29T09:50:00.849Z,3778.560
2022-07-29T09:51:00.705Z,3778.560
2022-07-29T09:52:00.585Z,3778.560
2022-07-29T09:53:00.446Z,3801.600
2022-07-29T09:54:00.275Z,3778.560
2022-07-29T09:55:00.781Z,3778.560
2022-07-29T09:56:00.374Z,3801.600
2022-07-29T09:57:00.524Z,3801.600
2022-07-29T09:58:00.667Z,3801.600
2022-07-29T09:59:00.702Z,3801.600
2022-07-29T10:00:00.542Z,3847.680
2022-07-29T10:01:00.665Z,3778.560
2022-07-29T10:02:00.524Z,3778.560
2022-07-29T10:03:00.419Z,3778.560
2022-07-29T10:04:00.527Z,3778.560
2022-07-29T10:05:00.560Z,3847.680
2022-07-29T10:06:00.489Z,3801.600
2022-07-29T10:07:04.887Z,3847.680
2022-07-29T10:08:00.329Z,3801.600
2022-07-29T10:09:00.611Z,3778.560
2022-07-29T10:10:00.323Z,3824.640
2022-07-29T10:11:00.594Z,3778.560
2022-07-29T10:12:00.496Z,3778.560
2022-07-29T10:13:04.601Z,3755.520
2022-07-29T10:14:00.332Z,3755.520
2022-07-29T10:15:00.356Z,3778.560
2022-07-29T10:16:00.445Z,3755.520
2022-07-29T10:17:00.461Z,3755.520
2022-07-29T10:18:00.663Z,3755.520
2022-07-29T10:19:00.369Z,3755.520
2022-07-29T10:20:00.341Z,3755.520
2022-07-29T10:21:00.595Z,3778.560
2022-07-29T10:22:00.659Z,3824.640
2022-07-29T10:23:00.567Z,3778.560
2022-07-29T10:24:01.260Z,3801.600
2022-07-29T10:25:00.420Z,3732.480
2022-07-29T10:26:00.304Z,3732.480
2022-07-29T10:27:00.347Z,3709.440
2022-07-29T10:28:00.378Z,3686.400
2022-07-29T10:29:00.310Z,3686.400
2022-07-29T10:30:00.565Z,3709.440
2022-07-29T10:31:00.389Z,3686.400
2022-07-29T10:32:00.342Z,3686.400
2022-07-29T10:33:00.322Z,3663.360
2022-07-29T10:34:00.368Z,3663.360
2022-07-29T10:35:00.497Z,3640.320
2022-07-29T10:36:00.638Z,3640.320
2022-07-29T10:37:00.328Z,3617.280
2022-07-29T10:38:00.441Z,3571.200
2022-07-29T10:39:00.316Z,3502.080
2022-07-29T10:40:00.310Z,3548.160
2022-07-29T10:41:00.403Z,3525.120
2022-07-29T10:42:00.347Z,3594.240
2022-07-29T10:43:00.322Z,3571.200
2022-07-29T10:44:00.609Z,3594.240
2022-07-29T10:45:00.392Z,3525.120
2022-07-29T10:46:00.376Z,3571.200
2022-07-29T10:47:00.559Z,3548.160
2022-07-29T10:48:00.391Z,3548.160
2022-07-29T10:49:00.472Z,3525.120
2022-07-29T10:50:01.127Z,3525.120
2022-07-29T10:51:00.482Z,3525.120
2022-07-29T10:52:00.830Z,3502.080
2022-07-29T10:53:00.339Z,3502.080
2022-07-29T10:54:00.371Z,3502.080
2022-07-29T10:55:00.433Z,3525.120
2022-07-29T10:56:00.716Z,3502.080
2022-07-29T10:57:00.341Z,3525.120
2022-07-29T10:58:00.299Z,3548.160
2022-07-29T10:59:00.363Z,3525.120
2022-07-29T11:00:00.371Z,3525.120
2022-07-29T11:01:00.365Z,3525.120
2022-07-29T11:02:27.669Z,3502.080
2022-07-29T11:03:00.429Z,3502.080
2022-07-29T11:04:00.425Z,3479.040
2022-07-29T11:05:00.417Z,3502.080
2022-07-29T11:06:00.523Z,3502.080
2022-07-29T11:07:00.308Z,3479.040
2022-07-29T11:08:00.391Z,3502.080
2022-07-29T11:09:00.295Z,3479.040
2022-07-29T11:10:00.462Z,3502.080
2022-07-29T11:11:00.314Z,3479.040
2022-07-29T11:12:00.874Z,3502.080
2022-07-29T11:13:00.311Z,3479.040
2022-07-29T11:14:00.458Z,3502.080
2022-07-29T11:15:00.518Z,3479.040
2022-07-29T11:16:00.284Z,3479.040
2022-07-29T11:17:00.407Z,3479.040
2022-07-29T11:18:00.488Z,3479.040
2022-07-29T11:19:00.347Z,3456.000
2022-07-29T11:20:00.473Z,3456.000
2022-07-29T11:21:00.578Z,3456.000
2022-07-29T11:22:00.539Z,3479.040
2022-07-29T11:23:00.289Z,3479.040
2022-07-29T11:24:00.655Z,3502.080
2022-07-29T11:25:00.307Z,3479.040
2022-07-29T11:26:00.386Z,3479.040
2022-07-29T11:27:00.776Z,3479.040
2022-07-29T11:28:00.304Z,3456.000
2022-07-29T11:29:00.304Z,3456.000
2022-07-29T11:30:01.151Z,3479.040
2022-07-29T11:31:00.302Z,3502.080
2022-07-29T11:32:00.398Z,3502.080
2022-07-29T11:33:00.329Z,3502.080
2022-07-29T11:34:05.516Z,3502.080
2022-07-29T11:35:00.301Z,3502.080
2022-07-29T11:36:00.760Z,3525.120
2022-07-29T11:37:00.313Z,3502.080
2022-07-29T11:38:00.485Z,3525.120
2022-07-29T11:39:00.290Z,3548.160
2022-07-29T11:40:02.149Z,3548.160
2022-07-29T11:41:00.285Z,3525.120
2022-07-29T11:42:04.876Z,3548.160
2022-07-29T11:43:00.311Z,3548.160
2022-07-29T11:44:00.423Z,3571.200
2022-07-29T11:45:04.291Z,3571.200
2022-07-29T11:46:00.273Z,3548.160
2022-07-29T11:47:00.295Z,3594.240
2022-07-29T11:48:27.665Z,3594.240
2022-07-29T11:49:00.509Z,3594.240
2022-07-29T11:50:00.491Z,3594.240
2022-07-29T11:51:00.525Z,3594.240